sensor_id;sensor_type;location;lat;lon;timestamp;P1;durP1;ratioP1;P2;durP2;ratioP2
56720;SDS011;53183;47.412;18.884;2023-04-03T00:00:55;9.18;;;4.62;;
56720;SDS011;53183;47.412;18.884;2023-04-03T00:03:23;10.40;;;4.55;;
56720;SDS011;53183;47.412;18.884;2023-04-03T00:05:51;9.68;;;4.45;;
56720;SDS011;53183;47.412;18.884;2023-04-03T00:08:18;7.97;;;4.15;;
56720;SDS011;53183;47.412;18.884;2023-04-03T00:10:45;5.82;;;3.50;;
56720;SDS011;53183;47.412;18.884;2023-04-03T00:13:13;6.05;;;3.90;;
56720;SDS011;53183;47.412;18.884;2023-04-03T00:15:40;5.68;;;3.80;;
56720;SDS011;53183;47.412;18.884;2023-04-03T00:18:08;6.45;;;3.70;;
56720;SDS011;53183;47.412;18.884;2023-04-03T00:20:35;11.40;;;3.90;;
56720;SDS011;53183;47.412;18.884;2023-04-03T00:23:02;7.05;;;3.42;;
56720;SDS011;53183;47.412;18.884;2023-04-03T00:25:30;5.20;;;3.22;;
56720;SDS011;53183;47.412;18.884;2023-04-03T00:27:57;6.85;;;3.60;;
56720;SDS011;53183;47.412;18.884;2023-04-03T00:30:24;6.05;;;3.72;;
56720;SDS011;53183;47.412;18.884;2023-04-03T00:32:53;7.75;;;4.28;;
56720;SDS011;53183;47.412;18.884;2023-04-03T00:35:20;5.05;;;3.25;;
56720;SDS011;53183;47.412;18.884;2023-04-03T00:37:50;4.70;;;3.50;;
56720;SDS011;53183;47.412;18.884;2023-04-03T00:40:19;6.22;;;3.50;;
56720;SDS011;53183;47.412;18.884;2023-04-03T00:42:48;7.85;;;3.37;;
56720;SDS011;53183;47.412;18.884;2023-04-03T00:47:44;6.15;;;3.28;;
56720;SDS011;53183;47.412;18.884;2023-04-03T00:50:12;6.18;;;2.97;;
56720;SDS011;53183;47.412;18.884;2023-04-03T00:52:39;7.30;;;3.62;;
56720;SDS011;53183;47.412;18.884;2023-04-03T00:55:07;6.45;;;3.90;;
56720;SDS011;53183;47.412;18.884;2023-04-03T00:57:36;5.65;;;3.17;;
56720;SDS011;53183;47.412;18.884;2023-04-03T01:00:05;4.18;;;2.95;;
56720;SDS011;53183;47.412;18.884;2023-04-03T01:02:39;4.18;;;2.67;;
56720;SDS011;53183;47.412;18.884;2023-04-03T01:05:10;5.68;;;3.35;;
56720;SDS011;53183;47.412;18.884;2023-04-03T01:07:38;5.12;;;2.80;;
56720;SDS011;53183;47.412;18.884;2023-04-03T01:10:08;5.45;;;3.20;;
56720;SDS011;53183;47.412;18.884;2023-04-03T01:12:42;8.10;;;3.30;;
56720;SDS011;53183;47.412;18.884;2023-04-03T01:15:15;5.70;;;3.40;;
56720;SDS011;53183;47.412;18.884;2023-04-03T01:25:21;5.25;;;2.80;;
56720;SDS011;53183;47.412;18.884;2023-04-03T01:27:49;4.85;;;2.83;;
56720;SDS011;53183;47.412;18.884;2023-04-03T01:30:17;4.57;;;2.72;;
56720;SDS011;53183;47.412;18.884;2023-04-03T01:32:45;4.20;;;2.53;;
56720;SDS011;53183;47.412;18.884;2023-04-03T01:35:13;6.00;;;3.08;;
56720;SDS011;53183;47.412;18.884;2023-04-03T01:37:40;4.22;;;2.45;;
56720;SDS011;53183;47.412;18.884;2023-04-03T01:40:07;4.62;;;2.67;;
56720;SDS011;53183;47.412;18.884;2023-04-03T01:42:35;5.37;;;2.53;;
56720;SDS011;53183;47.412;18.884;2023-04-03T01:45:02;5.30;;;3.12;;
56720;SDS011;53183;47.412;18.884;2023-04-03T01:47:30;3.85;;;2.58;;
56720;SDS011;53183;47.412;18.884;2023-04-03T01:49:57;5.30;;;2.42;;
56720;SDS011;53183;47.412;18.884;2023-04-03T01:52:25;4.68;;;2.85;;
56720;SDS011;53183;47.412;18.884;2023-04-03T01:54:52;3.53;;;2.17;;
56720;SDS011;53183;47.412;18.884;2023-04-03T01:57:19;4.85;;;2.42;;
56720;SDS011;53183;47.412;18.884;2023-04-03T01:59:47;4.00;;;2.50;;
56720;SDS011;53183;47.412;18.884;2023-04-03T02:02:15;6.82;;;2.95;;
56720;SDS011;53183;47.412;18.884;2023-04-03T02:04:42;5.00;;;2.50;;
56720;SDS011;53183;47.412;18.884;2023-04-03T02:07:10;5.75;;;2.35;;
56720;SDS011;53183;47.412;18.884;2023-04-03T02:09:37;5.03;;;2.75;;
56720;SDS011;53183;47.412;18.884;2023-04-03T02:12:05;4.15;;;2.65;;
56720;SDS011;53183;47.412;18.884;2023-04-03T02:14:32;5.03;;;3.00;;
56720;SDS011;53183;47.412;18.884;2023-04-03T02:17:00;4.95;;;2.40;;
56720;SDS011;53183;47.412;18.884;2023-04-03T02:19:32;5.47;;;3.20;;
56720;SDS011;53183;47.412;18.884;2023-04-03T02:21:59;4.85;;;2.85;;
56720;SDS011;53183;47.412;18.884;2023-04-03T02:24:26;5.30;;;2.90;;
56720;SDS011;53183;47.412;18.884;2023-04-03T02:26:54;4.55;;;2.83;;
56720;SDS011;53183;47.412;18.884;2023-04-03T02:29:21;5.85;;;3.15;;
56720;SDS011;53183;47.412;18.884;2023-04-03T02:31:49;6.25;;;3.33;;
56720;SDS011;53183;47.412;18.884;2023-04-03T02:34:17;5.85;;;3.00;;
56720;SDS011;53183;47.412;18.884;2023-04-03T02:36:45;6.57;;;3.40;;
56720;SDS011;53183;47.412;18.884;2023-04-03T02:39:12;4.82;;;2.62;;
56720;SDS011;53183;47.412;18.884;2023-04-03T02:41:41;7.90;;;2.90;;
56720;SDS011;53183;47.412;18.884;2023-04-03T02:44:09;5.95;;;3.00;;
56720;SDS011;53183;47.412;18.884;2023-04-03T02:46:37;8.73;;;3.42;;
56720;SDS011;53183;47.412;18.884;2023-04-03T02:49:05;3.25;;;2.47;;
56720;SDS011;53183;47.412;18.884;2023-04-03T02:51:32;10.13;;;3.47;;
56720;SDS011;53183;47.412;18.884;2023-04-03T02:53:59;4.45;;;2.80;;
56720;SDS011;53183;47.412;18.884;2023-04-03T02:56:28;6.03;;;3.70;;
56720;SDS011;53183;47.412;18.884;2023-04-03T02:58:55;5.65;;;2.92;;
56720;SDS011;53183;47.412;18.884;2023-04-03T03:01:23;6.32;;;2.80;;
56720;SDS011;53183;47.412;18.884;2023-04-03T03:03:50;6.00;;;3.30;;
56720;SDS011;53183;47.412;18.884;2023-04-03T03:06:17;5.95;;;2.83;;
56720;SDS011;53183;47.412;18.884;2023-04-03T03:08:45;6.00;;;3.47;;
56720;SDS011;53183;47.412;18.884;2023-04-03T03:11:12;6.03;;;3.72;;
56720;SDS011;53183;47.412;18.884;2023-04-03T03:13:40;6.12;;;3.45;;
56720;SDS011;53183;47.412;18.884;2023-04-03T03:16:07;6.82;;;3.65;;
56720;SDS011;53183;47.412;18.884;2023-04-03T03:18:35;7.37;;;3.90;;
56720;SDS011;53183;47.412;18.884;2023-04-03T03:21:03;6.05;;;3.28;;
56720;SDS011;53183;47.412;18.884;2023-04-03T03:23:31;9.10;;;3.83;;
56720;SDS011;53183;47.412;18.884;2023-04-03T03:26:03;5.95;;;3.42;;
56720;SDS011;53183;47.412;18.884;2023-04-03T03:28:34;5.78;;;3.22;;
56720;SDS011;53183;47.412;18.884;2023-04-03T03:31:04;7.78;;;3.92;;
56720;SDS011;53183;47.412;18.884;2023-04-03T03:33:32;5.05;;;3.12;;
56720;SDS011;53183;47.412;18.884;2023-04-03T03:35:59;7.45;;;2.75;;
56720;SDS011;53183;47.412;18.884;2023-04-03T03:38:28;8.90;;;3.55;;
56720;SDS011;53183;47.412;18.884;2023-04-03T03:40:55;3.65;;;2.70;;
56720;SDS011;53183;47.412;18.884;2023-04-03T03:43:23;8.93;;;3.95;;
56720;SDS011;53183;47.412;18.884;2023-04-03T03:45:51;6.45;;;3.40;;
56720;SDS011;53183;47.412;18.884;2023-04-03T03:48:19;4.30;;;2.92;;
56720;SDS011;53183;47.412;18.884;2023-04-03T03:50:47;6.32;;;2.87;;
56720;SDS011;53183;47.412;18.884;2023-04-03T03:53:16;6.35;;;3.22;;
56720;SDS011;53183;47.412;18.884;2023-04-03T03:55:44;4.20;;;2.55;;
56720;SDS011;53183;47.412;18.884;2023-04-03T03:58:12;5.80;;;3.33;;
56720;SDS011;53183;47.412;18.884;2023-04-03T04:00:39;5.60;;;3.12;;
56720;SDS011;53183;47.412;18.884;2023-04-03T04:03:07;5.15;;;3.08;;
56720;SDS011;53183;47.412;18.884;2023-04-03T04:05:35;7.37;;;3.17;;
56720;SDS011;53183;47.412;18.884;2023-04-03T04:08:02;6.20;;;3.03;;
56720;SDS011;53183;47.412;18.884;2023-04-03T04:10:30;6.18;;;3.25;;
56720;SDS011;53183;47.412;18.884;2023-04-03T04:12:57;6.18;;;3.22;;
56720;SDS011;53183;47.412;18.884;2023-04-03T04:15:25;9.60;;;3.33;;
56720;SDS011;53183;47.412;18.884;2023-04-03T04:17:54;7.15;;;3.53;;
56720;SDS011;53183;47.412;18.884;2023-04-03T04:20:22;6.12;;;3.15;;
56720;SDS011;53183;47.412;18.884;2023-04-03T04:22:49;4.72;;;2.83;;
56720;SDS011;53183;47.412;18.884;2023-04-03T04:25:17;5.70;;;3.10;;
56720;SDS011;53183;47.412;18.884;2023-04-03T04:27:44;6.93;;;3.22;;
56720;SDS011;53183;47.412;18.884;2023-04-03T04:30:13;4.90;;;2.65;;
56720;SDS011;53183;47.412;18.884;2023-04-03T04:32:41;6.07;;;3.40;;
56720;SDS011;53183;47.412;18.884;2023-04-03T04:35:08;3.53;;;2.70;;
56720;SDS011;53183;47.412;18.884;2023-04-03T04:37:39;7.25;;;3.10;;
56720;SDS011;53183;47.412;18.884;2023-04-03T04:40:07;5.87;;;3.15;;
56720;SDS011;53183;47.412;18.884;2023-04-03T04:42:35;7.80;;;4.03;;
56720;SDS011;53183;47.412;18.884;2023-04-03T04:45:02;6.05;;;3.60;;
56720;SDS011;53183;47.412;18.884;2023-04-03T04:47:30;6.30;;;3.25;;
56720;SDS011;53183;47.412;18.884;2023-04-03T04:49:57;5.82;;;3.25;;
56720;SDS011;53183;47.412;18.884;2023-04-03T04:52:25;5.62;;;2.72;;
56720;SDS011;53183;47.412;18.884;2023-04-03T04:54:52;4.68;;;3.12;;
56720;SDS011;53183;47.412;18.884;2023-04-03T04:57:20;4.72;;;2.90;;
56720;SDS011;53183;47.412;18.884;2023-04-03T04:59:47;8.27;;;3.60;;
56720;SDS011;53183;47.412;18.884;2023-04-03T05:02:14;4.97;;;2.92;;
56720;SDS011;53183;47.412;18.884;2023-04-03T05:04:42;8.20;;;3.03;;
56720;SDS011;53183;47.412;18.884;2023-04-03T05:07:10;5.82;;;3.42;;
56720;SDS011;53183;47.412;18.884;2023-04-03T05:09:38;4.65;;;2.85;;
56720;SDS011;53183;47.412;18.884;2023-04-03T05:12:05;5.18;;;2.72;;
56720;SDS011;53183;47.412;18.884;2023-04-03T05:14:34;4.20;;;2.92;;
56720;SDS011;53183;47.412;18.884;2023-04-03T05:17:08;4.82;;;2.65;;
56720;SDS011;53183;47.412;18.884;2023-04-03T05:19:43;6.35;;;2.72;;
56720;SDS011;53183;47.412;18.884;2023-04-03T05:22:11;7.55;;;3.08;;
56720;SDS011;53183;47.412;18.884;2023-04-03T05:24:38;5.57;;;3.03;;
56720;SDS011;53183;47.412;18.884;2023-04-03T05:27:06;5.62;;;2.55;;
56720;SDS011;53183;47.412;18.884;2023-04-03T05:29:34;11.70;;;4.00;;
56720;SDS011;53183;47.412;18.884;2023-04-03T05:32:02;12.82;;;3.12;;
56720;SDS011;53183;47.412;18.884;2023-04-03T05:34:33;3.80;;;2.42;;
56720;SDS011;53183;47.412;18.884;2023-04-03T05:37:11;11.02;;;2.97;;
56720;SDS011;53183;47.412;18.884;2023-04-03T05:39:39;4.43;;;2.65;;
56720;SDS011;53183;47.412;18.884;2023-04-03T05:42:08;5.50;;;2.72;;
56720;SDS011;53183;47.412;18.884;2023-04-03T05:44:36;6.93;;;3.80;;
56720;SDS011;53183;47.412;18.884;2023-04-03T05:47:03;6.32;;;2.75;;
56720;SDS011;53183;47.412;18.884;2023-04-03T05:49:32;5.22;;;3.08;;
56720;SDS011;53183;47.412;18.884;2023-04-03T05:52:00;5.05;;;3.47;;
56720;SDS011;53183;47.412;18.884;2023-04-03T05:54:28;6.28;;;3.30;;
56720;SDS011;53183;47.412;18.884;2023-04-03T05:56:57;5.80;;;3.35;;
56720;SDS011;53183;47.412;18.884;2023-04-03T05:59:25;5.20;;;3.35;;
56720;SDS011;53183;47.412;18.884;2023-04-03T06:01:53;7.18;;;4.07;;
56720;SDS011;53183;47.412;18.884;2023-04-03T06:04:21;6.85;;;3.10;;
56720;SDS011;53183;47.412;18.884;2023-04-03T06:06:55;9.52;;;3.80;;
56720;SDS011;53183;47.412;18.884;2023-04-03T06:09:37;4.60;;;2.70;;
56720;SDS011;53183;47.412;18.884;2023-04-03T06:12:05;5.45;;;2.95;;
56720;SDS011;53183;47.412;18.884;2023-04-03T06:14:32;5.47;;;3.05;;
56720;SDS011;53183;47.412;18.884;2023-04-03T06:17:01;5.05;;;2.92;;
56720;SDS011;53183;47.412;18.884;2023-04-03T06:19:29;5.45;;;2.75;;
56720;SDS011;53183;47.412;18.884;2023-04-03T06:21:57;4.90;;;3.03;;
56720;SDS011;53183;47.412;18.884;2023-04-03T06:24:24;7.90;;;2.30;;
56720;SDS011;53183;47.412;18.884;2023-04-03T06:26:52;4.80;;;3.10;;
56720;SDS011;53183;47.412;18.884;2023-04-03T06:29:19;5.80;;;2.55;;
56720;SDS011;53183;47.412;18.884;2023-04-03T06:31:47;4.43;;;2.62;;
56720;SDS011;53183;47.412;18.884;2023-04-03T06:34:15;5.57;;;3.15;;
56720;SDS011;53183;47.412;18.884;2023-04-03T06:36:46;3.03;;;2.30;;
56720;SDS011;53183;47.412;18.884;2023-04-03T06:39:13;3.95;;;2.17;;
56720;SDS011;53183;47.412;18.884;2023-04-03T06:41:42;7.37;;;2.80;;
56720;SDS011;53183;47.412;18.884;2023-04-03T06:44:10;4.25;;;2.20;;
56720;SDS011;53183;47.412;18.884;2023-04-03T06:46:38;8.40;;;2.50;;
56720;SDS011;53183;47.412;18.884;2023-04-03T06:49:06;4.32;;;2.72;;
56720;SDS011;53183;47.412;18.884;2023-04-03T06:51:34;6.57;;;2.50;;
56720;SDS011;53183;47.412;18.884;2023-04-03T06:54:02;6.00;;;2.72;;
56720;SDS011;53183;47.412;18.884;2023-04-03T06:56:31;3.12;;;2.30;;
56720;SDS011;53183;47.412;18.884;2023-04-03T06:58:59;2.87;;;1.98;;
56720;SDS011;53183;47.412;18.884;2023-04-03T07:01:28;9.18;;;3.15;;
56720;SDS011;53183;47.412;18.884;2023-04-03T07:03:57;3.75;;;2.40;;
56720;SDS011;53183;47.412;18.884;2023-04-03T07:06:24;5.00;;;2.45;;
56720;SDS011;53183;47.412;18.884;2023-04-03T07:08:53;4.68;;;2.65;;
56720;SDS011;53183;47.412;18.884;2023-04-03T07:11:21;5.15;;;3.00;;
56720;SDS011;53183;47.412;18.884;2023-04-03T07:13:49;3.87;;;2.40;;
56720;SDS011;53183;47.412;18.884;2023-04-03T07:16:17;5.32;;;2.92;;
56720;SDS011;53183;47.412;18.884;2023-04-03T07:18:45;4.20;;;2.55;;
56720;SDS011;53183;47.412;18.884;2023-04-03T07:21:12;4.87;;;2.33;;
56720;SDS011;53183;47.412;18.884;2023-04-03T07:23:39;4.05;;;2.30;;
56720;SDS011;53183;47.412;18.884;2023-04-03T07:26:07;3.37;;;2.10;;
56720;SDS011;53183;47.412;18.884;2023-04-03T07:28:34;4.87;;;2.40;;
56720;SDS011;53183;47.412;18.884;2023-04-03T07:31:04;4.78;;;2.17;;
56720;SDS011;53183;47.412;18.884;2023-04-03T07:33:35;5.43;;;2.35;;
56720;SDS011;53183;47.412;18.884;2023-04-03T07:36:04;3.10;;;2.05;;
56720;SDS011;53183;47.412;18.884;2023-04-03T07:38:34;4.87;;;2.25;;
56720;SDS011;53183;47.412;18.884;2023-04-03T07:41:03;3.55;;;2.05;;
56720;SDS011;53183;47.412;18.884;2023-04-03T07:43:30;4.47;;;2.35;;
56720;SDS011;53183;47.412;18.884;2023-04-03T07:45:58;3.80;;;1.77;;
56720;SDS011;53183;47.412;18.884;2023-04-03T07:48:25;4.55;;;1.65;;
56720;SDS011;53183;47.412;18.884;2023-04-03T07:50:53;3.37;;;1.83;;
56720;SDS011;53183;47.412;18.884;2023-04-03T07:53:20;2.15;;;1.50;;
56720;SDS011;53183;47.412;18.884;2023-04-03T07:55:48;3.30;;;2.08;;
56720;SDS011;53183;47.412;18.884;2023-04-03T07:58:17;2.75;;;1.60;;
56720;SDS011;53183;47.412;18.884;2023-04-03T08:00:45;1.90;;;1.40;;
56720;SDS011;53183;47.412;18.884;2023-04-03T08:03:13;5.15;;;1.87;;
56720;SDS011;53183;47.412;18.884;2023-04-03T08:05:44;2.42;;;1.65;;
56720;SDS011;53183;47.412;18.884;2023-04-03T08:08:14;2.37;;;1.58;;
56720;SDS011;53183;47.412;18.884;2023-04-03T08:10:51;4.12;;;1.52;;
56720;SDS011;53183;47.412;18.884;2023-04-03T08:13:20;3.12;;;1.80;;
56720;SDS011;53183;47.412;18.884;2023-04-03T08:15:48;3.37;;;1.60;;
56720;SDS011;53183;47.412;18.884;2023-04-03T08:18:16;5.18;;;1.65;;
56720;SDS011;53183;47.412;18.884;2023-04-03T08:20:45;2.58;;;1.77;;
56720;SDS011;53183;47.412;18.884;2023-04-03T08:23:12;3.08;;;1.90;;
56720;SDS011;53183;47.412;18.884;2023-04-03T08:25:40;4.47;;;2.00;;
56720;SDS011;53183;47.412;18.884;2023-04-03T08:28:10;3.42;;;1.83;;
56720;SDS011;53183;47.412;18.884;2023-04-03T08:30:41;3.40;;;1.75;;
56720;SDS011;53183;47.412;18.884;2023-04-03T08:33:09;2.97;;;1.60;;
56720;SDS011;53183;47.412;18.884;2023-04-03T08:35:38;3.05;;;1.42;;
56720;SDS011;53183;47.412;18.884;2023-04-03T08:38:08;5.57;;;1.60;;
56720;SDS011;53183;47.412;18.884;2023-04-03T08:40:36;2.42;;;1.37;;
56720;SDS011;53183;47.412;18.884;2023-04-03T08:45:52;2.53;;;1.80;;
56720;SDS011;53183;47.412;18.884;2023-04-03T08:48:30;3.05;;;1.42;;
56720;SDS011;53183;47.412;18.884;2023-04-03T08:51:04;2.95;;;1.60;;
56720;SDS011;53183;47.412;18.884;2023-04-03T08:53:42;2.17;;;1.42;;
56720;SDS011;53183;47.412;18.884;2023-04-03T08:56:17;2.67;;;1.58;;
56720;SDS011;53183;47.412;18.884;2023-04-03T08:59:09;3.62;;;1.85;;
56720;SDS011;53183;47.412;18.884;2023-04-03T09:01:38;6.22;;;3.53;;
56720;SDS011;53183;47.412;18.884;2023-04-03T09:04:14;1.67;;;1.33;;
56720;SDS011;53183;47.412;18.884;2023-04-03T09:06:44;4.55;;;1.65;;
56720;SDS011;53183;47.412;18.884;2023-04-03T09:14:55;2.80;;;1.40;;
56720;SDS011;53183;47.412;18.884;2023-04-03T09:22:47;1.92;;;1.20;;
56720;SDS011;53183;47.412;18.884;2023-04-03T09:25:25;3.10;;;1.15;;
56720;SDS011;53183;47.412;18.884;2023-04-03T09:28:00;1.00;;;0.75;;
56720;SDS011;53183;47.412;18.884;2023-04-03T09:30:30;2.20;;;0.80;;
56720;SDS011;53183;47.412;18.884;2023-04-03T09:32:57;1.85;;;1.10;;
56720;SDS011;53183;47.412;18.884;2023-04-03T09:35:26;2.97;;;1.50;;
56720;SDS011;53183;47.412;18.884;2023-04-03T09:40:41;3.35;;;1.40;;
56720;SDS011;53183;47.412;18.884;2023-04-03T09:43:20;3.17;;;1.45;;
56720;SDS011;53183;47.412;18.884;2023-04-03T09:45:52;2.42;;;1.00;;
56720;SDS011;53183;47.412;18.884;2023-04-03T09:48:21;1.75;;;1.42;;
56720;SDS011;53183;47.412;18.884;2023-04-03T09:50:53;1.87;;;1.30;;
56720;SDS011;53183;47.412;18.884;2023-04-03T09:53:27;1.50;;;1.08;;
56720;SDS011;53183;47.412;18.884;2023-04-03T09:58:46;2.15;;;1.00;;
56720;SDS011;53183;47.412;18.884;2023-04-03T10:04:07;2.70;;;1.20;;
56720;SDS011;53183;47.412;18.884;2023-04-03T10:06:46;1.67;;;1.02;;
56720;SDS011;53183;47.412;18.884;2023-04-03T10:12:03;1.60;;;0.90;;
56720;SDS011;53183;47.412;18.884;2023-04-03T10:23:02;1.35;;;0.80;;
56720;SDS011;53183;47.412;18.884;2023-04-03T10:25:43;5.75;;;0.82;;
56720;SDS011;53183;47.412;18.884;2023-04-03T10:42:08;1.77;;;0.90;;
56720;SDS011;53183;47.412;18.884;2023-04-03T10:48:01;2.50;;;0.90;;
56720;SDS011;53183;47.412;18.884;2023-04-03T10:56:35;2.45;;;1.42;;
56720;SDS011;53183;47.412;18.884;2023-04-03T11:05:15;3.42;;;2.58;;
56720;SDS011;53183;47.412;18.884;2023-04-03T11:07:48;2.22;;;1.42;;
56720;SDS011;53183;47.412;18.884;2023-04-03T11:10:40;1.35;;;0.93;;
56720;SDS011;53183;47.412;18.884;2023-04-03T11:13:14;3.30;;;0.80;;
56720;SDS011;53183;47.412;18.884;2023-04-03T11:15:51;1.23;;;1.00;;
56720;SDS011;53183;47.412;18.884;2023-04-03T11:18:22;3.00;;;1.27;;
56720;SDS011;53183;47.412;18.884;2023-04-03T11:21:10;1.00;;;0.90;;
56720;SDS011;53183;47.412;18.884;2023-04-03T11:23:57;2.45;;;1.20;;
56720;SDS011;53183;47.412;18.884;2023-04-03T11:26:27;5.78;;;1.55;;
56720;SDS011;53183;47.412;18.884;2023-04-03T11:31:57;1.60;;;0.95;;
56720;SDS011;53183;47.412;18.884;2023-04-03T11:34:39;1.35;;;0.80;;
56720;SDS011;53183;47.412;18.884;2023-04-03T11:37:56;2.03;;;0.75;;
56720;SDS011;53183;47.412;18.884;2023-04-03T11:40:24;2.30;;;0.90;;
56720;SDS011;53183;47.412;18.884;2023-04-03T11:53:36;1.10;;;0.73;;
56720;SDS011;53183;47.412;18.884;2023-04-03T11:56:27;2.55;;;1.00;;
56720;SDS011;53183;47.412;18.884;2023-04-03T12:01:43;1.52;;;1.10;;
56720;SDS011;53183;47.412;18.884;2023-04-03T12:04:18;1.83;;;1.10;;
56720;SDS011;53183;47.412;18.884;2023-04-03T12:09:29;2.00;;;1.40;;
56720;SDS011;53183;47.412;18.884;2023-04-03T12:12:01;3.22;;;1.55;;
56720;SDS011;53183;47.412;18.884;2023-04-03T12:14:50;1.50;;;1.08;;
56720;SDS011;53183;47.412;18.884;2023-04-03T12:17:27;5.55;;;1.25;;
56720;SDS011;53183;47.412;18.884;2023-04-03T12:19:57;2.35;;;1.27;;
56720;SDS011;53183;47.412;18.884;2023-04-03T12:22:24;5.35;;;1.85;;
56720;SDS011;53183;47.412;18.884;2023-04-03T12:24:52;6.57;;;1.80;;
56720;SDS011;53183;47.412;18.884;2023-04-03T12:27:26;3.05;;;1.20;;
56720;SDS011;53183;47.412;18.884;2023-04-03T12:30:39;4.18;;;1.60;;
56720;SDS011;53183;47.412;18.884;2023-04-03T12:33:29;4.10;;;1.30;;
56720;SDS011;53183;47.412;18.884;2023-04-03T12:36:11;3.15;;;1.30;;
56720;SDS011;53183;47.412;18.884;2023-04-03T12:46:53;3.45;;;1.52;;
56720;SDS011;53183;47.412;18.884;2023-04-03T12:52:02;1.25;;;0.77;;
56720;SDS011;53183;47.412;18.884;2023-04-03T12:54:43;2.90;;;1.20;;
56720;SDS011;53183;47.412;18.884;2023-04-03T12:57:17;4.53;;;1.20;;
56720;SDS011;53183;47.412;18.884;2023-04-03T12:59:46;1.37;;;0.73;;
56720;SDS011;53183;47.412;18.884;2023-04-03T13:02:27;8.18;;;1.45;;
56720;SDS011;53183;47.412;18.884;2023-04-03T13:04:57;4.90;;;1.42;;
56720;SDS011;53183;47.412;18.884;2023-04-03T13:07:27;4.65;;;2.35;;
56720;SDS011;53183;47.412;18.884;2023-04-03T13:10:02;3.70;;;1.70;;
56720;SDS011;53183;47.412;18.884;2023-04-03T13:15:19;4.55;;;1.45;;
56720;SDS011;53183;47.412;18.884;2023-04-03T13:17:49;2.78;;;1.48;;
56720;SDS011;53183;47.412;18.884;2023-04-03T13:20:26;4.93;;;1.27;;
56720;SDS011;53183;47.412;18.884;2023-04-03T13:25:24;2.65;;;1.10;;
56720;SDS011;53183;47.412;18.884;2023-04-03T13:27:55;3.08;;;1.42;;
56720;SDS011;53183;47.412;18.884;2023-04-03T13:30:33;3.50;;;1.50;;
56720;SDS011;53183;47.412;18.884;2023-04-03T13:33:04;2.40;;;1.40;;
56720;SDS011;53183;47.412;18.884;2023-04-03T13:35:45;5.62;;;1.30;;
56720;SDS011;53183;47.412;18.884;2023-04-03T13:40:56;5.65;;;1.75;;
56720;SDS011;53183;47.412;18.884;2023-04-03T13:43:28;13.77;;;1.80;;
56720;SDS011;53183;47.412;18.884;2023-04-03T13:46:03;4.55;;;2.08;;
56720;SDS011;53183;47.412;18.884;2023-04-03T13:53:46;4.22;;;1.75;;
56720;SDS011;53183;47.412;18.884;2023-04-03T13:56:22;5.78;;;2.28;;
56720;SDS011;53183;47.412;18.884;2023-04-03T13:59:50;3.50;;;2.17;;
56720;SDS011;53183;47.412;18.884;2023-04-03T14:04:30;3.20;;;1.90;;
56720;SDS011;53183;47.412;18.884;2023-04-03T14:07:03;10.30;;;2.10;;
56720;SDS011;53183;47.412;18.884;2023-04-03T14:09:31;4.90;;;2.40;;
56720;SDS011;53183;47.412;18.884;2023-04-03T14:12:00;5.35;;;2.10;;
56720;SDS011;53183;47.412;18.884;2023-04-03T14:14:35;3.42;;;2.42;;
56720;SDS011;53183;47.412;18.884;2023-04-03T14:17:03;6.25;;;3.28;;
56720;SDS011;53183;47.412;18.884;2023-04-03T14:19:52;5.80;;;2.70;;
56720;SDS011;53183;47.412;18.884;2023-04-03T14:22:24;4.07;;;2.37;;
56720;SDS011;53183;47.412;18.884;2023-04-03T14:24:55;4.80;;;2.35;;
56720;SDS011;53183;47.412;18.884;2023-04-03T14:29:54;2.33;;;1.92;;
56720;SDS011;53183;47.412;18.884;2023-04-03T14:32:23;11.77;;;2.80;;
56720;SDS011;53183;47.412;18.884;2023-04-03T14:34:52;4.05;;;1.98;;
56720;SDS011;53183;47.412;18.884;2023-04-03T14:37:21;3.70;;;2.20;;
56720;SDS011;53183;47.412;18.884;2023-04-03T14:39:51;3.45;;;1.45;;
56720;SDS011;53183;47.412;18.884;2023-04-03T14:42:26;6.75;;;2.25;;
56720;SDS011;53183;47.412;18.884;2023-04-03T14:44:56;2.60;;;1.73;;
56720;SDS011;53183;47.412;18.884;2023-04-03T14:47:25;7.90;;;3.53;;
56720;SDS011;53183;47.412;18.884;2023-04-03T14:50:02;14.60;;;4.28;;
56720;SDS011;53183;47.412;18.884;2023-04-03T14:52:33;7.07;;;3.15;;
56720;SDS011;53183;47.412;18.884;2023-04-03T14:55:03;5.10;;;3.17;;
56720;SDS011;53183;47.412;18.884;2023-04-03T14:57:32;4.57;;;2.22;;
56720;SDS011;53183;47.412;18.884;2023-04-03T15:00:00;3.03;;;1.70;;
56720;SDS011;53183;47.412;18.884;2023-04-03T15:02:30;4.75;;;2.15;;
56720;SDS011;53183;47.412;18.884;2023-04-03T15:05:01;5.60;;;2.37;;
56720;SDS011;53183;47.412;18.884;2023-04-03T15:07:35;3.12;;;1.83;;
56720;SDS011;53183;47.412;18.884;2023-04-03T15:12:46;3.85;;;1.75;;
56720;SDS011;53183;47.412;18.884;2023-04-03T15:15:14;2.80;;;1.50;;
56720;SDS011;53183;47.412;18.884;2023-04-03T15:17:43;3.47;;;1.92;;
56720;SDS011;53183;47.412;18.884;2023-04-03T15:20:15;4.30;;;1.92;;
56720;SDS011;53183;47.412;18.884;2023-04-03T15:22:47;3.08;;;1.62;;
56720;SDS011;53183;47.412;18.884;2023-04-03T15:25:14;3.42;;;1.48;;
56720;SDS011;53183;47.412;18.884;2023-04-03T15:27:42;6.32;;;1.90;;
56720;SDS011;53183;47.412;18.884;2023-04-03T15:30:17;3.05;;;1.80;;
56720;SDS011;53183;47.412;18.884;2023-04-03T15:32:46;4.57;;;1.90;;
56720;SDS011;53183;47.412;18.884;2023-04-03T15:35:13;6.72;;;2.17;;
56720;SDS011;53183;47.412;18.884;2023-04-03T15:37:41;4.50;;;2.12;;
56720;SDS011;53183;47.412;18.884;2023-04-03T15:40:08;4.68;;;1.70;;
56720;SDS011;53183;47.412;18.884;2023-04-03T15:42:36;4.85;;;1.83;;
56720;SDS011;53183;47.412;18.884;2023-04-03T15:45:04;1.95;;;1.05;;
56720;SDS011;53183;47.412;18.884;2023-04-03T15:47:31;6.75;;;2.30;;
56720;SDS011;53183;47.412;18.884;2023-04-03T15:49:59;6.97;;;2.22;;
56720;SDS011;53183;47.412;18.884;2023-04-03T15:52:26;4.32;;;1.90;;
56720;SDS011;53183;47.412;18.884;2023-04-03T15:54:53;4.05;;;2.08;;
56720;SDS011;53183;47.412;18.884;2023-04-03T15:57:20;5.15;;;2.10;;
56720;SDS011;53183;47.412;18.884;2023-04-03T15:59:52;5.37;;;1.95;;
56720;SDS011;53183;47.412;18.884;2023-04-03T16:02:20;3.20;;;1.90;;
56720;SDS011;53183;47.412;18.884;2023-04-03T16:04:48;3.17;;;1.92;;
56720;SDS011;53183;47.412;18.884;2023-04-03T16:07:16;4.37;;;1.60;;
56720;SDS011;53183;47.412;18.884;2023-04-03T16:09:43;4.30;;;1.80;;
56720;SDS011;53183;47.412;18.884;2023-04-03T16:12:10;4.45;;;2.15;;
56720;SDS011;53183;47.412;18.884;2023-04-03T16:14:37;7.40;;;2.00;;
56720;SDS011;53183;47.412;18.884;2023-04-03T16:17:04;4.65;;;1.60;;
56720;SDS011;53183;47.412;18.884;2023-04-03T16:19:32;5.18;;;1.92;;
56720;SDS011;53183;47.412;18.884;2023-04-03T16:21:59;7.65;;;2.42;;
56720;SDS011;53183;47.412;18.884;2023-04-03T16:24:26;2.87;;;1.85;;
56720;SDS011;53183;47.412;18.884;2023-04-03T16:26:54;3.33;;;1.70;;
56720;SDS011;53183;47.412;18.884;2023-04-03T16:29:21;3.28;;;1.50;;
56720;SDS011;53183;47.412;18.884;2023-04-03T16:31:48;5.32;;;1.62;;
56720;SDS011;53183;47.412;18.884;2023-04-03T16:34:15;6.57;;;2.30;;
56720;SDS011;53183;47.412;18.884;2023-04-03T16:36:43;7.12;;;2.22;;
56720;SDS011;53183;47.412;18.884;2023-04-03T16:39:10;2.33;;;1.23;;
56720;SDS011;53183;47.412;18.884;2023-04-03T16:41:37;4.70;;;2.17;;
56720;SDS011;53183;47.412;18.884;2023-04-03T16:44:04;5.70;;;2.25;;
56720;SDS011;53183;47.412;18.884;2023-04-03T16:46:34;4.15;;;1.98;;
56720;SDS011;53183;47.412;18.884;2023-04-03T16:49:02;9.00;;;2.47;;
56720;SDS011;53183;47.412;18.884;2023-04-03T16:51:30;6.00;;;2.37;;
56720;SDS011;53183;47.412;18.884;2023-04-03T16:53:58;5.00;;;1.98;;